sensor_id;sensor_type;location;lat;lon;timestamp;temperature;humidity
23629;DHT22;11991;57.150;-2.134;2024-03-23T00:53:57;6.40;99.90
23629;DHT22;11991;57.150;-2.134;2024-03-23T00:56:23;6.40;99.90
23629;DHT22;11991;57.150;-2.134;2024-03-23T00:58:50;6.40;99.90
23629;DHT22;11991;57.150;-2.134;2024-03-23T01:01:16;6.40;99.90
23629;DHT22;11991;57.150;-2.134;2024-03-23T01:03:42;6.40;99.90
23629;DHT22;11991;57.150;-2.134;2024-03-23T01:06:08;6.40;99.90
23629;DHT22;11991;57.150;-2.134;2024-03-23T01:08:34;6.40;99.90
23629;DHT22;11991;57.150;-2.134;2024-03-23T01:11:01;6.40;99.90
23629;DHT22;11991;57.150;-2.134;2024-03-23T01:13:28;6.40;99.90
23629;DHT22;11991;57.150;-2.134;2024-03-23T01:15:55;6.40;99.90
23629;DHT22;11991;57.150;-2.134;2024-03-23T01:18:22;6.40;99.90
23629;DHT22;11991;57.150;-2.134;2024-03-23T01:20:49;6.40;99.90
23629;DHT22;11991;57.150;-2.134;2024-03-23T01:23:15;6.40;99.90
23629;DHT22;11991;57.150;-2.134;2024-03-23T01:25:41;6.40;99.90
23629;DHT22;11991;57.150;-2.134;2024-03-23T01:28:08;6.40;99.90
23629;DHT22;11991;57.150;-2.134;2024-03-23T01:30:35;6.40;99.90
23629;DHT22;11991;57.150;-2.134;2024-03-23T01:33:01;6.40;99.90
23629;DHT22;11991;57.150;-2.134;2024-03-23T01:35:28;6.30;99.90
23629;DHT22;11991;57.150;-2.134;2024-03-23T01:37:55;6.40;99.90
23629;DHT22;11991;57.150;-2.134;2024-03-23T01:40:21;6.40;99.90
23629;DHT22;11991;57.150;-2.134;2024-03-23T01:45:23;6.40;99.90
23629;DHT22;11991;57.150;-2.134;2024-03-23T01:47:52;6.40;99.90
23629;DHT22;11991;57.150;-2.134;2024-03-23T01:50:20;6.40;99.90
23629;DHT22;11991;57.150;-2.134;2024-03-23T01:52:47;6.30;99.90
23629;DHT22;11991;57.150;-2.134;2024-03-23T01:55:14;6.30;99.90
23629;DHT22;11991;57.150;-2.134;2024-03-23T01:57:40;6.30;99.90
23629;DHT22;11991;57.150;-2.134;2024-03-23T02:00:07;6.30;99.90
23629;DHT22;11991;57.150;-2.134;2024-03-23T02:02:45;6.30;99.90
23629;DHT22;11991;57.150;-2.134;2024-03-23T02:05:11;6.30;99.90
23629;DHT22;11991;57.150;-2.134;2024-03-23T02:07:42;6.30;99.90
23629;DHT22;11991;57.150;-2.134;2024-03-23T02:10:10;6.30;99.90
23629;DHT22;11991;57.150;-2.134;2024-03-23T02:12:36;6.30;99.90
23629;DHT22;11991;57.150;-2.134;2024-03-23T02:15:03;6.30;99.90
23629;DHT22;11991;57.150;-2.134;2024-03-23T02:17:31;6.30;99.90
23629;DHT22;11991;57.150;-2.134;2024-03-23T02:19:58;6.30;99.90
23629;DHT22;11991;57.150;-2.134;2024-03-23T02:22:24;6.30;99.90
23629;DHT22;11991;57.150;-2.134;2024-03-23T02:24:50;6.40;99.90
23629;DHT22;11991;57.150;-2.134;2024-03-23T02:27:16;6.30;99.90
23629;DHT22;11991;57.150;-2.134;2024-03-23T02:29:42;6.30;99.90
23629;DHT22;11991;57.150;-2.134;2024-03-23T02:32:08;6.40;99.90
23629;DHT22;11991;57.150;-2.134;2024-03-23T02:34:35;6.40;99.90
23629;DHT22;11991;57.150;-2.134;2024-03-23T02:37:02;6.40;99.90
23629;DHT22;11991;57.150;-2.134;2024-03-23T02:39:28;6.40;99.90
23629;DHT22;11991;57.150;-2.134;2024-03-23T02:41:54;6.40;99.90
23629;DHT22;11991;57.150;-2.134;2024-03-23T02:44:20;6.40;99.90
23629;DHT22;11991;57.150;-2.134;2024-03-23T02:46:46;6.50;99.90
23629;DHT22;11991;57.150;-2.134;2024-03-23T02:49:14;6.40;99.90
23629;DHT22;11991;57.150;-2.134;2024-03-23T02:51:40;6.50;99.90
23629;DHT22;11991;57.150;-2.134;2024-03-23T02:54:06;6.40;99.90
23629;DHT22;11991;57.150;-2.134;2024-03-23T02:56:33;6.40;99.90
23629;DHT22;11991;57.150;-2.134;2024-03-23T02:58:59;6.40;99.90
23629;DHT22;11991;57.150;-2.134;2024-03-23T03:01:25;6.40;99.90
23629;DHT22;11991;57.150;-2.134;2024-03-23T03:03:51;6.40;99.90
23629;DHT22;11991;57.150;-2.134;2024-03-23T03:06:27;6.40;99.90
23629;DHT22;11991;57.150;-2.134;2024-03-23T03:08:53;6.40;99.90
23629;DHT22;11991;57.150;-2.134;2024-03-23T03:11:19;6.40;99.90
23629;DHT22;11991;57.150;-2.134;2024-03-23T03:13:46;6.50;99.90
23629;DHT22;11991;57.150;-2.134;2024-03-23T03:16:12;6.40;99.90
23629;DHT22;11991;57.150;-2.134;2024-03-23T03:18:39;6.50;99.90
23629;DHT22;11991;57.150;-2.134;2024-03-23T03:21:07;6.50;99.90
23629;DHT22;11991;57.150;-2.134;2024-03-23T03:23:37;6.50;99.90
23629;DHT22;11991;57.150;-2.134;2024-03-23T03:26:04;6.50;99.90
23629;DHT22;11991;57.150;-2.134;2024-03-23T03:28:31;6.40;99.90
23629;DHT22;11991;57.150;-2.134;2024-03-23T03:31:01;6.40;99.90
23629;DHT22;11991;57.150;-2.134;2024-03-23T03:33:28;6.40;99.90
23629;DHT22;11991;57.150;-2.134;2024-03-23T03:35:54;6.40;99.90
23629;DHT22;11991;57.150;-2.134;2024-03-23T03:38:21;6.50;99.90
23629;DHT22;11991;57.150;-2.134;2024-03-23T03:40:47;6.50;99.90
23629;DHT22;11991;57.150;-2.134;2024-03-23T03:43:13;6.50;99.90
23629;DHT22;11991;57.150;-2.134;2024-03-23T03:45:40;6.50;99.90
23629;DHT22;11991;57.150;-2.134;2024-03-23T03:48:06;6.50;99.90
23629;DHT22;11991;57.150;-2.134;2024-03-23T03:50:32;6.50;99.90
23629;DHT22;11991;57.150;-2.134;2024-03-23T03:52:59;6.50;99.90
23629;DHT22;11991;57.150;-2.134;2024-03-23T03:55:25;6.50;99.90
23629;DHT22;11991;57.150;-2.134;2024-03-23T03:57:51;6.50;99.90
23629;DHT22;11991;57.150;-2.134;2024-03-23T04:00:17;6.50;99.90
23629;DHT22;11991;57.150;-2.134;2024-03-23T04:02:43;6.40;99.90
23629;DHT22;11991;57.150;-2.134;2024-03-23T04:05:09;6.40;99.90
23629;DHT22;11991;57.150;-2.134;2024-03-23T04:07:35;6.40;99.90
23629;DHT22;11991;57.150;-2.134;2024-03-23T04:10:01;6.40;99.90
23629;DHT22;11991;57.150;-2.134;2024-03-23T04:12:33;6.40;99.90
23629;DHT22;11991;57.150;-2.134;2024-03-23T04:14:59;6.40;99.90
23629;DHT22;11991;57.150;-2.134;2024-03-23T04:17:27;6.40;99.90
23629;DHT22;11991;57.150;-2.134;2024-03-23T04:19:58;6.40;99.90
23629;DHT22;11991;57.150;-2.134;2024-03-23T04:22:24;6.40;99.90
23629;DHT22;11991;57.150;-2.134;2024-03-23T04:24:56;6.40;99.90
23629;DHT22;11991;57.150;-2.134;2024-03-23T04:27:23;6.40;99.90
23629;DHT22;11991;57.150;-2.134;2024-03-23T04:29:50;6.40;99.90
23629;DHT22;11991;57.150;-2.134;2024-03-23T04:32:16;6.50;99.90
23629;DHT22;11991;57.150;-2.134;2024-03-23T04:34:43;6.50;99.90
23629;DHT22;11991;57.150;-2.134;2024-03-23T04:37:10;6.50;99.90
23629;DHT22;11991;57.150;-2.134;2024-03-23T04:39:37;6.50;99.90
23629;DHT22;11991;57.150;-2.134;2024-03-23T04:42:04;6.50;99.90
23629;DHT22;11991;57.150;-2.134;2024-03-23T04:44:30;6.50;99.90
23629;DHT22;11991;57.150;-2.134;2024-03-23T04:46:57;6.50;99.90
23629;DHT22;11991;57.150;-2.134;2024-03-23T04:49:24;6.50;99.90
23629;DHT22;11991;57.150;-2.134;2024-03-23T04:51:50;6.40;99.90
23629;DHT22;11991;57.150;-2.134;2024-03-23T04:54:16;6.40;99.90
23629;DHT22;11991;57.150;-2.134;2024-03-23T04:56:42;6.40;99.90
23629;DHT22;11991;57.150;-2.134;2024-03-23T04:59:08;6.40;99.90
23629;DHT22;11991;57.150;-2.134;2024-03-23T05:01:34;6.40;99.90
23629;DHT22;11991;57.150;-2.134;2024-03-23T05:04:02;6.30;99.90
23629;DHT22;11991;57.150;-2.134;2024-03-23T05:06:28;6.30;99.90
23629;DHT22;11991;57.150;-2.134;2024-03-23T05:08:54;6.30;99.90
23629;DHT22;11991;57.150;-2.134;2024-03-23T05:11:20;6.30;99.90
23629;DHT22;11991;57.150;-2.134;2024-03-23T05:13:47;6.30;99.90
23629;DHT22;11991;57.150;-2.134;2024-03-23T05:16:13;6.30;99.90
23629;DHT22;11991;57.150;-2.134;2024-03-23T05:18:39;6.30;99.90
23629;DHT22;11991;57.150;-2.134;2024-03-23T05:21:05;6.30;99.90
23629;DHT22;11991;57.150;-2.134;2024-03-23T05:23:31;6.30;99.90
23629;DHT22;11991;57.150;-2.134;2024-03-23T05:25:57;6.30;99.90
23629;DHT22;11991;57.150;-2.134;2024-03-23T05:28:23;6.30;99.90
23629;DHT22;11991;57.150;-2.134;2024-03-23T05:30:53;6.40;99.90
23629;DHT22;11991;57.150;-2.134;2024-03-23T05:33:20;6.40;99.90
23629;DHT22;11991;57.150;-2.134;2024-03-23T05:35:47;6.30;99.90
23629;DHT22;11991;57.150;-2.134;2024-03-23T05:38:14;6.30;99.90
23629;DHT22;11991;57.150;-2.134;2024-03-23T05:40:40;6.30;99.90
23629;DHT22;11991;57.150;-2.134;2024-03-23T05:43:06;6.30;99.90
23629;DHT22;11991;57.150;-2.134;2024-03-23T05:45:33;6.30;99.90
23629;DHT22;11991;57.150;-2.134;2024-03-23T05:47:59;6.20;99.90
23629;DHT22;11991;57.150;-2.134;2024-03-23T05:50:25;6.20;99.90
23629;DHT22;11991;57.150;-2.134;2024-03-23T05:52:51;6.30;99.90
23629;DHT22;11991;57.150;-2.134;2024-03-23T05:55:17;6.20;99.90
23629;DHT22;11991;57.150;-2.134;2024-03-23T05:57:43;6.30;99.90
23629;DHT22;11991;57.150;-2.134;2024-03-23T06:00:11;6.20;99.90
23629;DHT22;11991;57.150;-2.134;2024-03-23T06:02:42;6.20;99.90
23629;DHT22;11991;57.150;-2.134;2024-03-23T06:05:12;6.20;99.90
23629;DHT22;11991;57.150;-2.134;2024-03-23T06:07:38;6.20;99.90
23629;DHT22;11991;57.150;-2.134;2024-03-23T06:10:07;6.20;99.90
23629;DHT22;11991;57.150;-2.134;2024-03-23T06:12:33;6.20;99.90
23629;DHT22;11991;57.150;-2.134;2024-03-23T06:15:00;6.20;99.90
23629;DHT22;11991;57.150;-2.134;2024-03-23T06:17:26;6.20;99.90
23629;DHT22;11991;57.150;-2.134;2024-03-23T06:19:52;6.20;99.90
23629;DHT22;11991;57.150;-2.134;2024-03-23T06:22:18;6.20;99.90
23629;DHT22;11991;57.150;-2.134;2024-03-23T06:24:44;6.20;99.90
23629;DHT22;11991;57.150;-2.134;2024-03-23T06:27:10;6.20;99.90
23629;DHT22;11991;57.150;-2.134;2024-03-23T06:29:36;6.20;99.90
23629;DHT22;11991;57.150;-2.134;2024-03-23T06:32:03;6.20;99.90
23629;DHT22;11991;57.150;-2.134;2024-03-23T06:34:29;6.20;99.90
23629;DHT22;11991;57.150;-2.134;2024-03-23T06:36:56;6.20;99.90
23629;DHT22;11991;57.150;-2.134;2024-03-23T06:39:22;6.20;99.90
23629;DHT22;11991;57.150;-2.134;2024-03-23T06:41:53;6.20;99.90
23629;DHT22;11991;57.150;-2.134;2024-03-23T06:44:20;6.20;99.90
23629;DHT22;11991;57.150;-2.134;2024-03-23T06:46:46;6.20;99.90
23629;DHT22;11991;57.150;-2.134;2024-03-23T06:49:13;6.30;99.90
23629;DHT22;11991;57.150;-2.134;2024-03-23T06:51:39;6.30;99.90
23629;DHT22;11991;57.150;-2.134;2024-03-23T06:54:05;6.30;99.90
23629;DHT22;11991;57.150;-2.134;2024-03-23T06:56:31;6.30;99.90
23629;DHT22;11991;57.150;-2.134;2024-03-23T06:58:58;6.40;99.90
23629;DHT22;11991;57.150;-2.134;2024-03-23T07:01:25;6.40;99.90
23629;DHT22;11991;57.150;-2.134;2024-03-23T07:03:51;6.40;99.90
23629;DHT22;11991;57.150;-2.134;2024-03-23T07:06:17;6.40;99.90
23629;DHT22;11991;57.150;-2.134;2024-03-23T07:08:43;6.50;99.90
23629;DHT22;11991;57.150;-2.134;2024-03-23T07:11:09;6.40;99.90
23629;DHT22;11991;57.150;-2.134;2024-03-23T07:13:35;6.40;99.90
23629;DHT22;11991;57.150;-2.134;2024-03-23T07:16:01;6.40;99.90
23629;DHT22;11991;57.150;-2.134;2024-03-23T07:18:27;6.40;99.90
23629;DHT22;11991;57.150;-2.134;2024-03-23T07:20:55;6.40;99.90
23629;DHT22;11991;57.150;-2.134;2024-03-23T07:23:25;6.40;99.90
23629;DHT22;11991;57.150;-2.134;2024-03-23T07:26:00;6.50;99.90
23629;DHT22;11991;57.150;-2.134;2024-03-23T07:28:27;6.50;99.90
23629;DHT22;11991;57.150;-2.134;2024-03-23T07:31:05;6.60;99.90
23629;DHT22;11991;57.150;-2.134;2024-03-23T07:33:32;6.60;99.90
23629;DHT22;11991;57.150;-2.134;2024-03-23T07:35:59;6.60;99.90
23629;DHT22;11991;57.150;-2.134;2024-03-23T07:38:27;6.70;99.90
23629;DHT22;11991;57.150;-2.134;2024-03-23T07:41:06;6.80;99.90
23629;DHT22;11991;57.150;-2.134;2024-03-23T07:43:32;6.80;99.90
23629;DHT22;11991;57.150;-2.134;2024-03-23T07:45:59;6.90;99.90
23629;DHT22;11991;57.150;-2.134;2024-03-23T07:48:26;7.00;99.90
23629;DHT22;11991;57.150;-2.134;2024-03-23T07:51:06;7.00;99.90
23629;DHT22;11991;57.150;-2.134;2024-03-23T07:53:33;7.10;99.90
23629;DHT22;11991;57.150;-2.134;2024-03-23T07:56:07;7.10;99.90
23629;DHT22;11991;57.150;-2.134;2024-03-23T07:58:34;7.10;99.90
23629;DHT22;11991;57.150;-2.134;2024-03-23T08:01:11;7.00;99.90
23629;DHT22;11991;57.150;-2.134;2024-03-23T08:03:39;7.00;99.90
23629;DHT22;11991;57.150;-2.134;2024-03-23T08:06:13;7.00;99.90
23629;DHT22;11991;57.150;-2.134;2024-03-23T08:08:41;7.00;99.90
23629;DHT22;11991;57.150;-2.134;2024-03-23T08:11:07;7.00;99.90
23629;DHT22;11991;57.150;-2.134;2024-03-23T08:13:34;7.00;99.90
23629;DHT22;11991;57.150;-2.134;2024-03-23T08:16:02;7.00;99.90
23629;DHT22;11991;57.150;-2.134;2024-03-23T08:18:29;7.10;99.90
23629;DHT22;11991;57.150;-2.134;2024-03-23T08:21:05;7.10;99.90
23629;DHT22;11991;57.150;-2.134;2024-03-23T08:23:33;7.20;99.90
23629;DHT22;11991;57.150;-2.134;2024-03-23T08:26:00;7.30;99.90
23629;DHT22;11991;57.150;-2.134;2024-03-23T08:28:27;7.40;99.90
23629;DHT22;11991;57.150;-2.134;2024-03-23T08:30:54;7.50;99.90
23629;DHT22;11991;57.150;-2.134;2024-03-23T08:33:21;7.60;99.90
23629;DHT22;11991;57.150;-2.134;2024-03-23T08:36:00;7.70;99.90
23629;DHT22;11991;57.150;-2.134;2024-03-23T08:38:27;7.80;99.90
23629;DHT22;11991;57.150;-2.134;2024-03-23T08:40:58;7.90;99.90
23629;DHT22;11991;57.150;-2.134;2024-03-23T08:43:25;7.90;99.90
23629;DHT22;11991;57.150;-2.134;2024-03-23T08:45:52;7.80;99.90
23629;DHT22;11991;57.150;-2.134;2024-03-23T08:48:19;7.80;99.90
23629;DHT22;11991;57.150;-2.134;2024-03-23T08:51:00;7.80;99.90
23629;DHT22;11991;57.150;-2.134;2024-03-23T08:53:28;7.80;99.90
23629;DHT22;11991;57.150;-2.134;2024-03-23T08:55:56;7.80;99.90
23629;DHT22;11991;57.150;-2.134;2024-03-23T08:58:24;7.90;99.90
23629;DHT22;11991;57.150;-2.134;2024-03-23T09:00:54;7.90;99.90
23629;DHT22;11991;57.150;-2.134;2024-03-23T09:03:24;7.90;99.90
23629;DHT22;11991;57.150;-2.134;2024-03-23T09:05:51;7.90;99.90
23629;DHT22;11991;57.150;-2.134;2024-03-23T09:08:17;8.00;99.90
23629;DHT22;11991;57.150;-2.134;2024-03-23T09:10:43;8.00;99.90
23629;DHT22;11991;57.150;-2.134;2024-03-23T09:13:10;8.10;99.90
23629;DHT22;11991;57.150;-2.134;2024-03-23T09:15:37;8.10;99.90
23629;DHT22;11991;57.150;-2.134;2024-03-23T09:18:04;8.00;99.90
23629;DHT22;11991;57.150;-2.134;2024-03-23T09:20:33;8.00;99.90
23629;DHT22;11991;57.150;-2.134;2024-03-23T09:22:59;8.00;99.90
23629;DHT22;11991;57.150;-2.134;2024-03-23T09:25:25;8.00;99.90
23629;DHT22;11991;57.150;-2.134;2024-03-23T09:27:51;8.00;99.90
23629;DHT22;11991;57.150;-2.134;2024-03-23T09:30:18;8.00;99.90
23629;DHT22;11991;57.150;-2.134;2024-03-23T09:32:46;8.10;99.90
23629;DHT22;11991;57.150;-2.134;2024-03-23T09:35:12;8.10;99.90
23629;DHT22;11991;57.150;-2.134;2024-03-23T09:37:38;8.10;99.90
23629;DHT22;11991;57.150;-2.134;2024-03-23T09:40:12;8.00;99.90
23629;DHT22;11991;57.150;-2.134;2024-03-23T09:42:38;8.00;99.90
23629;DHT22;11991;57.150;-2.134;2024-03-23T09:45:14;7.90;99.90
23629;DHT22;11991;57.150;-2.134;2024-03-23T09:47:42;7.90;99.90
23629;DHT22;11991;57.150;-2.134;2024-03-23T09:50:09;7.80;99.90
23629;DHT22;11991;57.150;-2.134;2024-03-23T09:52:36;7.80;99.90
23629;DHT22;11991;57.150;-2.134;2024-03-23T09:55:03;7.70;99.90
23629;DHT22;11991;57.150;-2.134;2024-03-23T09:57:30;7.70;99.90
23629;DHT22;11991;57.150;-2.134;2024-03-23T09:59:56;7.60;99.90
23629;DHT22;11991;57.150;-2.134;2024-03-23T10:02:24;7.60;99.90
23629;DHT22;11991;57.150;-2.134;2024-03-23T10:04:51;7.70;99.90
23629;DHT22;11991;57.150;-2.134;2024-03-23T10:07:21;7.70;99.90
23629;DHT22;11991;57.150;-2.134;2024-03-23T10:09:48;7.80;99.90
23629;DHT22;11991;57.150;-2.134;2024-03-23T10:12:16;8.00;99.90
23629;DHT22;11991;57.150;-2.134;2024-03-23T10:14:43;8.00;99.90
23629;DHT22;11991;57.150;-2.134;2024-03-23T10:17:19;8.10;99.90
23629;DHT22;11991;57.150;-2.134;2024-03-23T10:19:46;8.10;99.90
23629;DHT22;11991;57.150;-2.134;2024-03-23T10:22:20;8.10;99.90
23629;DHT22;11991;57.150;-2.134;2024-03-23T10:24:48;8.20;99.90
23629;DHT22;11991;57.150;-2.134;2024-03-23T10:27:20;8.30;99.90
23629;DHT22;11991;57.150;-2.134;2024-03-23T10:29:46;8.40;99.90
23629;DHT22;11991;57.150;-2.134;2024-03-23T10:32:17;8.40;99.90
23629;DHT22;11991;57.150;-2.134;2024-03-23T10:34:44;8.40;99.90
23629;DHT22;11991;57.150;-2.134;2024-03-23T10:37:11;8.40;99.90
23629;DHT22;11991;57.150;-2.134;2024-03-23T10:39:39;8.30;99.90
23629;DHT22;11991;57.150;-2.134;2024-03-23T10:42:07;8.30;99.90
23629;DHT22;11991;57.150;-2.134;2024-03-23T10:44:37;8.30;99.90
23629;DHT22;11991;57.150;-2.134;2024-03-23T10:47:05;8.40;99.90
23629;DHT22;11991;57.150;-2.134;2024-03-23T10:49:35;8.60;99.90
23629;DHT22;11991;57.150;-2.134;2024-03-23T10:52:03;8.60;99.90
23629;DHT22;11991;57.150;-2.134;2024-03-23T10:54:33;8.60;99.90
23629;DHT22;11991;57.150;-2.134;2024-03-23T10:57:06;8.70;99.90
23629;DHT22;11991;57.150;-2.134;2024-03-23T10:59:36;8.80;99.90
23629;DHT22;11991;57.150;-2.134;2024-03-23T11:02:02;8.80;99.90
23629;DHT22;11991;57.150;-2.134;2024-03-23T11:04:37;8.80;99.90
23629;DHT22;11991;57.150;-2.134;2024-03-23T11:09:55;8.90;99.90
23629;DHT22;11991;57.150;-2.134;2024-03-23T11:14:50;8.90;99.90
23629;DHT22;11991;57.150;-2.134;2024-03-23T11:19:59;8.60;99.90
23629;DHT22;11991;57.150;-2.134;2024-03-23T11:25:20;8.40;99.90
23629;DHT22;11991;57.150;-2.134;2024-03-23T11:27:51;8.40;99.90
23629;DHT22;11991;57.150;-2.134;2024-03-23T11:30:25;8.40;99.90
23629;DHT22;11991;57.150;-2.134;2024-03-23T11:32:54;8.40;99.90
23629;DHT22;11991;57.150;-2.134;2024-03-23T11:35:33;8.40;99.90
23629;DHT22;11991;57.150;-2.134;2024-03-23T11:38:07;8.50;99.90
23629;DHT22;11991;57.150;-2.134;2024-03-23T11:40:34;8.50;99.90
23629;DHT22;11991;57.150;-2.134;2024-03-23T11:43:02;8.60;99.90
23629;DHT22;11991;57.150;-2.134;2024-03-23T11:45:33;8.80;99.90
23629;DHT22;11991;57.150;-2.134;2024-03-23T11:50:35;8.90;99.90
23629;DHT22;11991;57.150;-2.134;2024-03-23T11:53:19;8.90;99.90
23629;DHT22;11991;57.150;-2.134;2024-03-23T11:55:56;8.90;99.90
23629;DHT22;11991;57.150;-2.134;2024-03-23T11:58:23;8.90;99.90
23629;DHT22;11991;57.150;-2.134;2024-03-23T12:00:58;9.00;99.90
23629;DHT22;11991;57.150;-2.134;2024-03-23T12:03:28;9.10;99.90
23629;DHT22;11991;57.150;-2.134;2024-03-23T12:05:59;9.10;99.90
23629;DHT22;11991;57.150;-2.134;2024-03-23T12:08:29;9.20;99.90
23629;DHT22;11991;57.150;-2.134;2024-03-23T12:11:06;9.20;99.90
23629;DHT22;11991;57.150;-2.134;2024-03-23T12:13:33;8.90;99.90
23629;DHT22;11991;57.150;-2.134;2024-03-23T12:18:40;8.10;99.90
23629;DHT22;11991;57.150;-2.134;2024-03-23T12:21:07;7.80;99.90
23629;DHT22;11991;57.150;-2.134;2024-03-23T12:23:34;7.30;99.90
23629;DHT22;11991;57.150;-2.134;2024-03-23T12:26:00;6.80;99.90
23629;DHT22;11991;57.150;-2.134;2024-03-23T12:28:26;6.60;99.90
23629;DHT22;11991;57.150;-2.134;2024-03-23T12:30:53;6.50;99.90
23629;DHT22;11991;57.150;-2.134;2024-03-23T12:33:23;6.50;99.90
23629;DHT22;11991;57.150;-2.134;2024-03-23T12:35:50;6.50;99.90
23629;DHT22;11991;57.150;-2.134;2024-03-23T12:38:16;6.60;99.90
23629;DHT22;11991;57.150;-2.134;2024-03-23T12:40:50;6.70;99.90
23629;DHT22;11991;57.150;-2.134;2024-03-23T12:43:16;6.80;99.90
23629;DHT22;11991;57.150;-2.134;2024-03-23T12:45:46;7.00;99.90
23629;DHT22;11991;57.150;-2.134;2024-03-23T12:48:13;7.20;99.90
23629;DHT22;11991;57.150;-2.134;2024-03-23T12:50:39;7.40;99.90
23629;DHT22;11991;57.150;-2.134;2024-03-23T12:53:05;7.60;99.90
23629;DHT22;11991;57.150;-2.134;2024-03-23T12:55:31;7.90;99.90
23629;DHT22;11991;57.150;-2.134;2024-03-23T12:57:57;7.90;99.90
23629;DHT22;11991;57.150;-2.134;2024-03-23T13:00:23;8.00;99.90
23629;DHT22;11991;57.150;-2.134;2024-03-23T13:02:49;8.00;99.90
23629;DHT22;11991;57.150;-2.134;2024-03-23T13:05:16;8.00;99.90
23629;DHT22;11991;57.150;-2.134;2024-03-23T13:07:42;8.10;99.90
23629;DHT22;11991;57.150;-2.134;2024-03-23T13:10:08;8.00;99.90
23629;DHT22;11991;57.150;-2.134;2024-03-23T13:12:35;8.00;99.90
23629;DHT22;11991;57.150;-2.134;2024-03-23T13:15:01;7.90;99.90
23629;DHT22;11991;57.150;-2.134;2024-03-23T13:17:27;8.00;99.90
23629;DHT22;11991;57.150;-2.134;2024-03-23T13:19:54;8.00;99.90
23629;DHT22;11991;57.150;-2.134;2024-03-23T13:22:22;8.00;99.90
23629;DHT22;11991;57.150;-2.134;2024-03-23T13:24:48;8.10;99.90
23629;DHT22;11991;57.150;-2.134;2024-03-23T13:27:14;8.20;99.90
23629;DHT22;11991;57.150;-2.134;2024-03-23T13:29:40;8.20;99.90
23629;DHT22;11991;57.150;-2.134;2024-03-23T13:32:08;8.20;99.90
23629;DHT22;11991;57.150;-2.134;2024-03-23T13:34:35;7.60;99.90
23629;DHT22;11991;57.150;-2.134;2024-03-23T13:37:01;7.10;99.90
23629;DHT22;11991;57.150;-2.134;2024-03-23T13:39:27;6.80;99.90
23629;DHT22;11991;57.150;-2.134;2024-03-23T13:41:54;6.60;99.90
23629;DHT22;11991;57.150;-2.134;2024-03-23T13:44:23;6.70;99.90
23629;DHT22;11991;57.150;-2.134;2024-03-23T13:46:50;6.70;99.90
23629;DHT22;11991;57.150;-2.134;2024-03-23T13:49:34;6.90;99.90
23629;DHT22;11991;57.150;-2.134;2024-03-23T13:52:00;7.10;99.90
23629;DHT22;11991;57.150;-2.134;2024-03-23T13:54:27;7.30;99.90
23629;DHT22;11991;57.150;-2.134;2024-03-23T13:56:55;7.50;99.90
23629;DHT22;11991;57.150;-2.134;2024-03-23T13:59:22;7.70;99.90
23629;DHT22;11991;57.150;-2.134;2024-03-23T14:01:51;7.80;99.90
23629;DHT22;11991;57.150;-2.134;2024-03-23T14:04:17;8.00;99.90
23629;DHT22;11991;57.150;-2.134;2024-03-23T14:06:46;8.10;99.90
23629;DHT22;11991;57.150;-2.134;2024-03-23T14:09:13;8.10;99.90
23629;DHT22;11991;57.150;-2.134;2024-03-23T14:11:41;8.10;99.90
23629;DHT22;11991;57.150;-2.134;2024-03-23T14:14:09;8.00;99.90
23629;DHT22;11991;57.150;-2.134;2024-03-23T14:16:35;7.70;99.90
23629;DHT22;11991;57.150;-2.134;2024-03-23T14:19:01;7.60;99.90
23629;DHT22;11991;57.150;-2.134;2024-03-23T14:21:27;7.50;99.90
23629;DHT22;11991;57.150;-2.134;2024-03-23T14:23:53;7.60;99.90
23629;DHT22;11991;57.150;-2.134;2024-03-23T14:26:21;7.60;99.90
23629;DHT22;11991;57.150;-2.134;2024-03-23T14:28:47;7.60;99.90
23629;DHT22;11991;57.150;-2.134;2024-03-23T14:31:13;7.70;99.90
23629;DHT22;11991;57.150;-2.134;2024-03-23T14:33:39;7.90;99.90
23629;DHT22;11991;57.150;-2.134;2024-03-23T14:36:16;8.10;99.90
23629;DHT22;11991;57.150;-2.134;2024-03-23T14:38:47;8.30;99.90
23629;DHT22;11991;57.150;-2.134;2024-03-23T14:41:14;8.40;99.90
23629;DHT22;11991;57.150;-2.134;2024-03-23T14:43:40;8.40;99.90
23629;DHT22;11991;57.150;-2.134;2024-03-23T14:48:35;8.40;99.90
23629;DHT22;11991;57.150;-2.134;2024-03-23T14:51:02;8.40;99.90
23629;DHT22;11991;57.150;-2.134;2024-03-23T14:53:32;8.40;99.90
23629;DHT22;11991;57.150;-2.134;2024-03-23T14:56:00;8.40;99.90
23629;DHT22;11991;57.150;-2.134;2024-03-23T14:58:29;8.40;99.90
23629;DHT22;11991;57.150;-2.134;2024-03-23T15:01:06;8.30;99.90
23629;DHT22;11991;57.150;-2.134;2024-03-23T15:03:39;8.00;99.90
23629;DHT22;11991;57.150;-2.134;2024-03-23T15:06:06;7.30;99.90
23629;DHT22;11991;57.150;-2.134;2024-03-23T15:08:32;6.80;99.90
23629;DHT22;11991;57.150;-2.134;2024-03-23T15:11:01;6.70;99.90
23629;DHT22;11991;57.150;-2.134;2024-03-23T15:13:34;6.60;99.90
23629;DHT22;11991;57.150;-2.134;2024-03-23T15:16:00;6.50;99.90
23629;DHT22;11991;57.150;-2.134;2024-03-23T15:18:26;6.50;99.90
23629;DHT22;11991;57.150;-2.134;2024-03-23T15:21:00;6.60;99.90
23629;DHT22;11991;57.150;-2.134;2024-03-23T15:23:34;6.60;99.90
23629;DHT22;11991;57.150;-2.134;2024-03-23T15:26:02;6.70;99.90
23629;DHT22;11991;57.150;-2.134;2024-03-23T15:28:29;6.70;99.90
23629;DHT22;11991;57.150;-2.134;2024-03-23T15:31:28;6.50;99.90
23629;DHT22;11991;57.150;-2.134;2024-03-23T15:33:55;6.40;99.90
23629;DHT22;11991;57.150;-2.134;2024-03-23T15:36:21;6.30;99.90
23629;DHT22;11991;57.150;-2.134;2024-03-23T15:38:47;6.30;99.90
23629;DHT22;11991;57.150;-2.134;2024-03-23T15:41:15;6.30;99.90
23629;DHT22;11991;57.150;-2.134;2024-03-23T15:43:41;6.40;99.90
23629;DHT22;11991;57.150;-2.134;2024-03-23T15:46:07;6.40;99.90
23629;DHT22;11991;57.150;-2.134;2024-03-23T15:48:35;6.50;99.90
23629;DHT22;11991;57.150;-2.134;2024-03-23T15:51:05;6.50;99.90
23629;DHT22;11991;57.150;-2.134;2024-03-23T15:53:31;6.50;99.90
23629;DHT22;11991;57.150;-2.134;2024-03-23T15:55:59;6.50;99.90
23629;DHT22;11991;57.150;-2.134;2024-03-23T15:58:26;6.50;99.90
23629;DHT22;11991;57.150;-2.134;2024-03-23T16:01:06;6.50;99.90
23629;DHT22;11991;57.150;-2.134;2024-03-23T16:03:33;6.40;99.90
23629;DHT22;11991;57.150;-2.134;2024-03-23T16:06:04;6.40;99.90
23629;DHT22;11991;57.150;-2.134;2024-03-23T16:08:31;6.50;99.90
23629;DHT22;11991;57.150;-2.134;2024-03-23T16:11:06;6.60;99.90
23629;DHT22;11991;57.150;-2.134;2024-03-23T16:13:34;6.80;99.90
23629;DHT22;11991;57.150;-2.134;2024-03-23T16:16:02;6.90;99.90
23629;DHT22;11991;57.150;-2.134;2024-03-23T16:18:36;7.00;99.90
23629;DHT22;11991;57.150;-2.134;2024-03-23T16:21:05;7.10;99.90
23629;DHT22;11991;57.150;-2.134;2024-03-23T16:23:35;7.20;99.90
23629;DHT22;11991;57.150;-2.134;2024-03-23T16:26:06;7.20;99.90
23629;DHT22;11991;57.150;-2.134;2024-03-23T16:28:35;7.30;99.90
23629;DHT22;11991;57.150;-2.134;2024-03-23T16:31:03;7.30;99.90
23629;DHT22;11991;57.150;-2.134;2024-03-23T16:33:30;7.40;99.90
23629;DHT22;11991;57.150;-2.134;2024-03-23T16:36:09;7.40;99.90
23629;DHT22;11991;57.150;-2.134;2024-03-23T16:38:36;7.40;99.90
23629;DHT22;11991;57.150;-2.134;2024-03-23T16:41:04;7.30;99.90
23629;DHT22;11991;57.150;-2.134;2024-03-23T16:43:35;7.20;99.90
23629;DHT22;11991;57.150;-2.134;2024-03-23T16:48:29;7.10;99.90
23629;DHT22;11991;57.150;-2.134;2024-03-23T16:50:57;7.10;99.90